Time;durP1;ratioP1;P1;durP2;ratioP2;P2;SDS_P1;SDS_P2;PMS_P1;PMS_P2;Temp;Humidity;BMP_temperature;BMP_pressure;BME280_temperature;BME280_humidity;BME280_pressure;Samples;Min_cycle;Max_cycle;Signal;HPM_P1;HPM_P2
2023/05/21 00:02:17;;;;;;;9.35;3.53;;;14.40;99.90;;;;;;4927848;29;20050;-74
2023/05/21 00:04:46;;;;;;;8.40;3.75;;;14.40;99.90;;;;;;4941154;29;20394;-75
2023/05/21 00:07:14;;;;;;;7.15;3.20;;;14.40;99.90;;;;;;4928658;29;20040;-74
2023/05/21 00:09:39;;;;;;;8.95;3.60;;;14.40;99.90;;;;;;4932550;29;20066;-74
2023/05/21 00:12:06;;;;;;;7.18;3.40;;;14.30;99.90;;;;;;4963587;28;20510;-74
2023/05/21 00:14:32;;;;;;;11.95;3.47;;;14.30;99.90;;;;;;4947468;29;20050;-74
2023/05/21 00:16:58;;;;;;;7.60;3.38;;;14.30;99.90;;;;;;4948268;29;20041;-74
2023/05/21 00:19:24;;;;;;;6.70;3.45;;;14.30;99.90;;;;;;4947604;29;20485;-74
2023/05/21 00:21:49;;;;;;;7.65;3.63;;;14.20;99.90;;;;;;4949093;28;20608;-74
2023/05/21 00:24:15;;;;;;;6.78;3.80;;;14.20;99.90;;;;;;4945857;28;20059;-75
2023/05/21 00:26:41;;;;;;;6.93;3.38;;;14.30;99.90;;;;;;4946871;29;20055;-75
2023/05/21 00:29:07;;;;;;;7.25;3.42;;;14.20;99.90;;;;;;4948257;28;20400;-75
2023/05/21 00:31:32;;;;;;;9.02;3.65;;;14.20;99.90;;;;;;4946646;28;20050;-75
2023/05/21 00:33:58;;;;;;;6.72;3.28;;;14.20;99.90;;;;;;4948690;29;20098;-74
2023/05/21 00:36:24;;;;;;;9.15;3.58;;;14.20;99.90;;;;;;4946974;29;20343;-73
2023/05/21 00:38:50;;;;;;;7.38;3.45;;;14.20;99.90;;;;;;4947165;29;20074;-74
2023/05/21 00:41:17;;;;;;;8.90;3.38;;;14.20;99.90;;;;;;4947264;29;20042;-74
2023/05/21 00:43:43;;;;;;;8.38;3.80;;;14.20;99.90;;;;;;4946952;28;20054;-74
2023/05/21 00:46:18;;;;;;;6.70;3.38;;;14.20;99.90;;;;;;4947338;28;20058;-74
2023/05/21 00:48:45;;;;;;;10.77;4.07;;;14.20;99.90;;;;;;4928716;29;20047;-74
2023/05/21 00:51:17;;;;;;;8.23;3.70;;;14.20;99.90;;;;;;4936911;29;20476;-74
2023/05/21 00:53:43;;;;;;;8.68;3.70;;;14.20;99.90;;;;;;4945440;29;20320;-74
2023/05/21 00:56:09;;;;;;;7.80;3.53;;;14.10;99.90;;;;;;4948121;29;20472;-74
2023/05/21 00:58:36;;;;;;;6.95;3.53;;;14.10;99.90;;;;;;4946237;28;20134;-74
2023/05/21 01:01:02;;;;;;;6.40;3.40;;;14.10;99.90;;;;;;4957828;28;20047;-73
2023/05/21 01:03:37;;;;;;;8.52;3.35;;;14.10;99.90;;;;;;4946201;29;20130;-73
2023/05/21 01:06:07;;;;;;;9.90;3.75;;;14.30;99.90;;;;;;4945423;28;20059;-74
2023/05/21 01:08:33;;;;;;;9.05;3.78;;;14.10;99.90;;;;;;4949070;28;20085;-74
2023/05/21 01:11:01;;;;;;;8.07;3.58;;;14.10;99.90;;;;;;4947070;29;20472;-74
2023/05/21 01:13:28;;;;;;;10.77;3.92;;;14.10;99.90;;;;;;4946461;29;20372;-73
2023/05/21 01:15:54;;;;;;;7.82;3.65;;;14.00;99.90;;;;;;4946341;29;20051;-74
2023/05/21 01:18:20;;;;;;;8.30;3.92;;;14.00;99.90;;;;;;4947644;28;20053;-73
2023/05/21 01:20:48;;;;;;;7.75;3.72;;;14.20;99.90;;;;;;4961440;28;20055;-74
2023/05/21 01:23:17;;;;;;;8.30;3.90;;;14.00;99.90;;;;;;4944860;28;20098;-74
2023/05/21 01:25:43;;;;;;;8.18;3.63;;;14.00;99.90;;;;;;4946036;28;20166;-73
2023/05/21 01:28:09;;;;;;;9.02;3.97;;;14.00;99.90;;;;;;4929998;29;20059;-74
2023/05/21 01:30:36;;;;;;;7.82;3.67;;;14.00;99.90;;;;;;4928527;29;20187;-74
2023/05/21 01:33:14;;;;;;;7.85;3.75;;;14.00;99.90;;;;;;4937970;29;20140;-74
2023/05/21 01:36:06;;;;;;;8.00;4.25;;;14.00;99.90;;;;;;4945100;28;20047;-74
2023/05/21 01:38:43;;;;;;;10.27;3.80;;;14.00;99.90;;;;;;4938518;29;20067;-74
2023/05/21 01:41:15;;;;;;;10.98;4.00;;;14.00;99.90;;;;;;4945504;28;20179;-73
2023/05/21 01:43:44;;;;;;;8.18;3.72;;;14.00;99.90;;;;;;4945754;29;20435;-74
2023/05/21 01:46:13;;;;;;;9.57;4.32;;;14.00;99.90;;;;;;4943723;28;20117;-73
2023/05/21 01:48:40;;;;;;;8.48;4.07;;;14.00;99.90;;;;;;4961187;28;20521;-74
2023/05/21 01:51:06;;;;;;;9.75;4.18;;;13.90;99.90;;;;;;4946201;28;20054;-73
2023/05/21 01:53:32;;;;;;;8.23;3.70;;;13.90;99.90;;;;;;4946027;28;20043;-74
2023/05/21 01:55:58;;;;;;;12.38;4.25;;;14.00;99.90;;;;;;4925697;29;20485;-74
2023/05/21 01:58:24;;;;;;;6.82;3.38;;;13.90;99.90;;;;;;4927540;29;20059;-74
2023/05/21 02:00:50;;;;;;;10.80;3.97;;;13.90;99.90;;;;;;4928335;29;20420;-74
2023/05/21 02:03:17;;;;;;;9.05;4.07;;;13.90;99.90;;;;;;4947347;28;20043;-74
2023/05/21 02:05:43;;;;;;;8.07;3.67;;;13.90;99.90;;;;;;4929073;29;20051;-74
2023/05/21 02:08:10;;;;;;;8.00;4.00;;;13.90;99.90;;;;;;4947249;28;20047;-74
2023/05/21 02:10:43;;;;;;;7.65;3.92;;;13.90;99.90;;;;;;4945714;29;20066;-74
2023/05/21 02:13:09;;;;;;;9.15;4.60;;;13.90;99.90;;;;;;4962447;28;20039;-74
2023/05/21 02:15:34;;;;;;;7.38;4.10;;;13.90;99.90;;;;;;4945712;29;20057;-74
2023/05/21 02:18:00;;;;;;;10.93;4.60;;;13.90;99.90;;;;;;4944341;29;20106;-74
2023/05/21 02:20:26;;;;;;;11.80;4.90;;;13.90;99.90;;;;;;4945807;29;20126;-74
2023/05/21 02:22:52;;;;;;;10.48;4.63;;;13.90;99.90;;;;;;4945844;29;20055;-74
2023/05/21 02:25:18;;;;;;;12.10;5.13;;;13.80;99.90;;;;;;4945484;29;20051;-74
2023/05/21 02:27:45;;;;;;;9.73;5.22;;;13.80;99.90;;;;;;4945882;29;20149;-74
2023/05/21 02:30:13;;;;;;;13.57;6.53;;;13.80;99.90;;;;;;4956164;28;20054;-74
2023/05/21 02:32:41;;;;;;;12.73;6.47;;;13.80;99.90;;;;;;4951839;28;20130;-74
2023/05/21 02:35:08;;;;;;;13.00;5.68;;;13.80;99.90;;;;;;4943804;28;20047;-74
2023/05/21 02:37:35;;;;;;;14.52;6.68;;;13.80;99.90;;;;;;4962041;28;20055;-74
2023/05/21 02:40:05;;;;;;;12.38;6.20;;;13.80;99.90;;;;;;4946288;29;20105;-74
2023/05/21 02:42:31;;;;;;;11.23;6.40;;;13.80;99.90;;;;;;4927305;29;20039;-74
2023/05/21 02:44:56;;;;;;;13.52;6.75;;;13.80;99.90;;;;;;4954308;28;20107;-75
2023/05/21 02:47:22;;;;;;;13.52;6.20;;;13.80;99.90;;;;;;4961513;28;20459;-74
2023/05/21 02:49:49;;;;;;;12.63;6.18;;;13.70;99.90;;;;;;4945036;29;20043;-75
2023/05/21 02:52:20;;;;;;;10.63;6.40;;;13.70;99.90;;;;;;4944566;29;20057;-74
2023/05/21 02:54:46;;;;;;;13.05;6.13;;;13.80;99.90;;;;;;4945780;29;20113;-74
2023/05/21 02:57:12;;;;;;;12.77;6.07;;;13.70;99.90;;;;;;4947068;28;20114;-75
2023/05/21 02:59:38;;;;;;;12.43;6.35;;;13.70;99.90;;;;;;4945493;28;20537;-74
2023/05/21 03:02:04;;;;;;;14.60;6.45;;;13.90;99.90;;;;;;4932934;29;20129;-75
2023/05/21 03:04:31;;;;;;;14.15;6.32;;;13.70;99.90;;;;;;4945722;29;20047;-75
2023/05/21 03:07:00;;;;;;;13.15;6.28;;;13.70;99.90;;;;;;4944819;28;20051;-74
2023/05/21 03:09:26;;;;;;;14.48;6.88;;;13.70;99.90;;;;;;4932323;28;20054;-75
2023/05/21 03:11:52;;;;;;;13.48;6.85;;;13.70;99.90;;;;;;4950805;28;20143;-74
2023/05/21 03:14:18;;;;;;;16.10;7.00;;;13.60;99.90;;;;;;4948452;29;20057;-75
2023/05/21 03:16:44;;;;;;;14.73;6.85;;;13.60;99.90;;;;;;4947835;29;20411;-75
2023/05/21 03:19:11;;;;;;;17.75;7.55;;;13.60;99.90;;;;;;4948513;29;20526;-75
2023/05/21 03:21:36;;;;;;;15.90;6.70;;;13.60;99.90;;;;;;4949221;28;20059;-74
2023/05/21 03:24:04;;;;;;;12.52;6.57;;;13.60;99.90;;;;;;4949233;29;20114;-75
2023/05/21 03:26:30;;;;;;;14.13;6.70;;;13.50;99.90;;;;;;4964844;28;20047;-74
2023/05/21 03:28:56;;;;;;;12.18;6.53;;;13.50;99.90;;;;;;4950811;28;20246;-75
2023/05/21 03:31:26;;;;;;;13.85;6.63;;;13.50;99.90;;;;;;4948582;29;20039;-74
2023/05/21 03:33:52;;;;;;;13.65;6.60;;;13.40;99.90;;;;;;4932677;29;20047;-75
2023/05/21 03:36:18;;;;;;;15.27;6.82;;;13.50;99.90;;;;;;4932345;29;20039;-76
2023/05/21 03:38:44;;;;;;;13.23;6.57;;;13.50;99.90;;;;;;4948864;29;20090;-75
2023/05/21 03:41:11;;;;;;;14.32;6.72;;;13.60;99.90;;;;;;4953767;28;20059;-75
2023/05/21 03:43:36;;;;;;;11.70;5.28;;;13.40;99.90;;;;;;4964631;28;20129;-75
2023/05/21 03:46:02;;;;;;;16.63;6.50;;;13.40;99.90;;;;;;4955516;28;20122;-75
2023/05/21 03:48:28;;;;;;;16.98;6.65;;;13.40;99.90;;;;;;4946987;29;20114;-75
2023/05/21 03:50:54;;;;;;;11.98;6.00;;;13.40;99.90;;;;;;4947910;29;20496;-75
2023/05/21 03:53:20;;;;;;;12.50;6.50;;;13.40;99.90;;;;;;4931212;29;20431;-75
2023/05/21 03:55:53;;;;;;;11.32;6.50;;;13.40;99.90;;;;;;4948260;29;20066;-75
2023/05/21 03:58:22;;;;;;;15.27;6.75;;;13.60;99.90;;;;;;4964996;28;20051;-75
2023/05/21 04:00:48;;;;;;;13.20;6.72;;;13.40;99.90;;;;;;4948494;28;20043;-74
2023/05/21 04:03:15;;;;;;;17.70;7.22;;;13.30;99.90;;;;;;4948065;29;20109;-76
2023/05/21 04:05:41;;;;;;;14.73;7.53;;;13.30;99.90;;;;;;4946765;28;20732;-75
2023/05/21 04:08:07;;;;;;;14.35;7.15;;;13.30;99.90;;;;;;4945188;28;20054;-75
2023/05/21 04:10:33;;;;;;;16.98;7.60;;;13.30;99.90;;;;;;4952428;28;20041;-75
2023/05/21 04:12:59;;;;;;;15.77;7.10;;;13.30;99.90;;;;;;4952083;28;20050;-75
2023/05/21 04:15:26;;;;;;;13.40;6.75;;;13.30;99.90;;;;;;4944980;29;20093;-74
2023/05/21 04:17:53;;;;;;;14.40;7.15;;;13.40;99.90;;;;;;4943893;28;20047;-75
2023/05/21 04:20:19;;;;;;;14.45;6.82;;;13.30;99.90;;;;;;4946837;29;20118;-75
2023/05/21 04:22:44;;;;;;;14.55;6.85;;;13.30;99.90;;;;;;4944720;29;20130;-75
2023/05/21 04:25:10;;;;;;;12.88;6.80;;;13.30;99.90;;;;;;4945078;28;20083;-75
2023/05/21 04:27:36;;;;;;;13.77;5.70;;;13.30;99.90;;;;;;4961690;28;20400;-75
2023/05/21 04:30:03;;;;;;;13.07;6.53;;;13.10;99.90;;;;;;4948470;29;20090;-75
2023/05/21 04:32:32;;;;;;;15.10;5.93;;;13.30;99.90;;;;;;4929626;29;20052;-75
2023/05/21 04:34:59;;;;;;;10.77;6.00;;;13.30;99.90;;;;;;4946878;28;20137;-75
2023/05/21 04:37:26;;;;;;;14.23;5.65;;;13.30;99.90;;;;;;4947464;28;20053;-75
2023/05/21 04:39:53;;;;;;;12.23;5.78;;;13.30;99.90;;;;;;4946259;29;20039;-75
2023/05/21 04:42:22;;;;;;;14.48;6.03;;;13.30;99.90;;;;;;4946893;28;20368;-75
2023/05/21 04:44:49;;;;;;;14.10;5.65;;;13.30;99.90;;;;;;4945517;29;20055;-75
2023/05/21 04:47:18;;;;;;;13.02;6.25;;;13.30;99.90;;;;;;4930187;29;20054;-75
2023/05/21 04:49:45;;;;;;;11.75;5.10;;;13.30;99.90;;;;;;4942317;29;20130;-75
2023/05/21 04:52:11;;;;;;;12.95;5.03;;;13.30;99.90;;;;;;4946987;28;20174;-74
2023/05/21 04:54:37;;;;;;;12.88;5.25;;;13.30;99.90;;;;;;4945984;28;20058;-75
2023/05/21 04:57:06;;;;;;;12.82;4.97;;;13.30;99.90;;;;;;4944273;28;20043;-75
2023/05/21 04:59:32;;;;;;;14.52;4.75;;;13.30;99.90;;;;;;4944325;29;20042;-76
2023/05/21 05:01:58;;;;;;;12.98;5.82;;;13.30;99.90;;;;;;4947985;29;20044;-75
2023/05/21 05:04:24;;;;;;;15.05;4.95;;;13.30;99.90;;;;;;4946914;28;20046;-75
2023/05/21 05:06:51;;;;;;;10.60;4.75;;;13.30;99.90;;;;;;4947402;28;20050;-75
2023/05/21 05:09:17;;;;;;;11.27;5.43;;;13.30;99.90;;;;;;4948922;28;20058;-76
2023/05/21 05:11:43;;;;;;;9.10;4.88;;;13.30;99.90;;;;;;4946639;28;20072;-75
2023/05/21 05:14:08;;;;;;;11.73;4.93;;;13.30;99.90;;;;;;4945647;28;20055;-75
2023/05/21 05:16:35;;;;;;;14.13;5.20;;;13.40;99.90;;;;;;4946824;28;20043;-76
2023/05/21 05:19:01;;;;;;;12.15;4.97;;;13.40;99.90;;;;;;4946470;29;20197;-76
2023/05/21 05:21:26;;;;;;;13.00;4.82;;;13.40;99.90;;;;;;4946864;28;20127;-75
2023/05/21 05:23:52;;;;;;;10.98;4.90;;;13.40;99.90;;;;;;4949347;28;20087;-76
2023/05/21 05:26:18;;;;;;;11.35;4.47;;;13.40;99.90;;;;;;4945768;29;20054;-76
2023/05/21 05:28:45;;;;;;;11.43;4.85;;;13.40;99.90;;;;;;4945242;28;20047;-75
2023/05/21 05:31:10;;;;;;;15.40;5.38;;;13.40;99.90;;;;;;4944426;28;20051;-75
2023/05/21 05:33:36;;;;;;;13.48;4.63;;;13.40;99.90;;;;;;4961039;28;20418;-77
2023/05/21 05:36:02;;;;;;;10.07;5.07;;;13.40;99.90;;;;;;4962899;28;20051;-76
2023/05/21 05:38:28;;;;;;;11.70;4.88;;;13.40;99.90;;;;;;4946169;29;20436;-76
2023/05/21 05:40:53;;;;;;;15.15;5.20;;;13.50;99.90;;;;;;4930343;29;20149;-76
2023/05/21 05:43:19;;;;;;;9.60;4.82;;;13.50;99.90;;;;;;4946167;29;20613;-76
2023/05/21 05:45:45;;;;;;;13.02;4.90;;;13.50;99.90;;;;;;4944725;29;20051;-75
2023/05/21 05:48:10;;;;;;;9.95;4.28;;;13.60;99.90;;;;;;4947753;28;20182;-75
2023/05/21 05:50:36;;;;;;;12.77;4.55;;;13.60;99.90;;;;;;4946247;29;20051;-75
2023/05/21 05:53:02;;;;;;;11.98;4.43;;;13.70;99.90;;;;;;4947422;29;20545;-76
2023/05/21 05:55:28;;;;;;;11.10;4.47;;;13.70;99.90;;;;;;4946022;28;20066;-75
2023/05/21 05:57:53;;;;;;;11.05;4.80;;;13.80;99.90;;;;;;4931411;29;20054;-76
2023/05/21 06:00:19;;;;;;;9.70;4.43;;;13.80;99.90;;;;;;4945561;29;20644;-76
2023/05/21 06:02:45;;;;;;;11.20;4.53;;;13.80;99.90;;;;;;4942714;29;20195;-75
2023/05/21 06:05:10;;;;;;;10.10;4.32;;;13.90;99.90;;;;;;4941654;29;20043;-74
2023/05/21 06:07:37;;;;;;;11.65;4.50;;;13.90;99.90;;;;;;4945421;29;20094;-75
2023/05/21 06:10:05;;;;;;;10.35;4.53;;;13.90;99.90;;;;;;4929042;29;20047;-75
2023/05/21 06:12:30;;;;;;;10.55;4.38;;;14.00;99.90;;;;;;4940000;28;20048;-76
2023/05/21 06:14:56;;;;;;;10.70;4.57;;;14.00;99.90;;;;;;4937324;28;20043;-75
2023/05/21 06:17:22;;;;;;;9.73;4.50;;;14.20;99.90;;;;;;4943141;28;20043;-75
2023/05/21 06:19:47;;;;;;;12.25;4.38;;;14.10;99.90;;;;;;4928898;29;20047;-75
2023/05/21 06:22:13;;;;;;;11.05;4.25;;;14.10;99.90;;;;;;4946872;29;20043;-75
2023/05/21 06:24:39;;;;;;;9.90;4.38;;;14.10;99.90;;;;;;4944886;29;20317;-76
2023/05/21 06:27:05;;;;;;;13.77;4.50;;;14.20;99.90;;;;;;4945923;29;20058;-76
2023/05/21 06:29:30;;;;;;;9.88;4.22;;;14.20;99.90;;;;;;4943218;28;20150;-77
2023/05/21 06:31:56;;;;;;;12.23;4.88;;;14.20;99.90;;;;;;4940258;29;20051;-75
2023/05/21 06:34:22;;;;;;;13.88;4.68;;;14.20;99.90;;;;;;4946495;28;20047;-75
2023/05/21 06:36:47;;;;;;;11.25;4.63;;;14.30;99.90;;;;;;4928536;29;20054;-78
2023/05/21 06:39:13;;;;;;;12.60;4.60;;;14.30;99.90;;;;;;4947857;28;20043;-76
2023/05/21 06:41:39;;;;;;;11.35;4.93;;;14.30;99.90;;;;;;4955082;28;20043;-76
2023/05/21 06:44:05;;;;;;;14.20;4.90;;;14.40;99.90;;;;;;4947170;28;20046;-76
2023/05/21 06:46:31;;;;;;;12.07;5.20;;;14.40;99.90;;;;;;4950568;28;20500;-75
2023/05/21 06:48:56;;;;;;;11.13;4.50;;;14.50;99.90;;;;;;4948977;28;20047;-75
2023/05/21 06:51:22;;;;;;;9.18;4.57;;;14.50;99.90;;;;;;4948216;29;20195;-76
2023/05/21 06:53:48;;;;;;;11.30;4.40;;;14.50;99.90;;;;;;4933246;29;20417;-76
2023/05/21 06:56:14;;;;;;;9.57;4.20;;;14.60;99.90;;;;;;4948594;28;20756;-76
2023/05/21 06:58:39;;;;;;;9.38;4.07;;;14.60;99.90;;;;;;4948286;28;20085;-75
2023/05/21 07:01:05;;;;;;;9.10;4.22;;;14.70;99.90;;;;;;4948880;29;20078;-76
2023/05/21 07:03:31;;;;;;;14.25;4.00;;;14.70;99.90;;;;;;4964766;28;20464;-76
2023/05/21 07:05:57;;;;;;;10.27;4.70;;;14.70;99.90;;;;;;4947721;28;20040;-75
2023/05/21 07:08:22;;;;;;;10.65;4.13;;;14.70;99.90;;;;;;4936499;29;20099;-76
2023/05/21 07:10:48;;;;;;;11.23;4.20;;;14.80;99.90;;;;;;4943661;29;20460;-76
2023/05/21 07:13:14;;;;;;;10.38;3.92;;;14.80;99.90;;;;;;4944128;28;20113;-76
2023/05/21 07:15:41;;;;;;;9.25;4.40;;;14.80;99.90;;;;;;4949637;28;20047;-76
2023/05/21 07:18:06;;;;;;;8.27;3.95;;;14.90;99.90;;;;;;4948449;28;20147;-76
2023/05/21 07:20:32;;;;;;;12.43;4.30;;;14.90;99.90;;;;;;4935791;28;20733;-76
2023/05/21 07:22:58;;;;;;;16.88;4.55;;;14.90;99.90;;;;;;4931036;29;20044;-76
2023/05/21 07:25:24;;;;;;;14.93;4.07;;;15.00;99.90;;;;;;4948510;29;20614;-76
2023/05/21 07:27:50;;;;;;;10.13;4.65;;;15.00;99.90;;;;;;4959606;28;20126;-76
2023/05/21 07:30:15;;;;;;;10.13;4.35;;;15.00;99.90;;;;;;4963576;28;20152;-76
2023/05/21 07:32:41;;;;;;;8.23;3.97;;;15.00;99.90;;;;;;4951213;28;20105;-76
2023/05/21 07:35:07;;;;;;;9.07;3.95;;;15.00;99.90;;;;;;4948041;28;20090;-76
2023/05/21 07:37:33;;;;;;;7.97;3.90;;;15.00;99.90;;;;;;4921020;29;20381;-76
2023/05/21 07:39:59;;;;;;;11.70;4.25;;;15.10;99.90;;;;;;4933220;29;20042;-76
2023/05/21 07:42:25;;;;;;;10.60;4.25;;;15.10;99.90;;;;;;4928859;29;20047;-76
2023/05/21 07:44:51;;;;;;;10.02;4.30;;;15.10;99.90;;;;;;4944384;28;20066;-76
2023/05/21 07:47:16;;;;;;;12.13;4.00;;;15.10;99.90;;;;;;4948407;28;20769;-75
2023/05/21 07:49:42;;;;;;;9.52;3.92;;;15.10;99.90;;;;;;4949164;28;20122;-76
2023/05/21 07:52:08;;;;;;;8.10;3.95;;;15.20;99.90;;;;;;4942738;28;20097;-76
2023/05/21 07:54:34;;;;;;;10.13;3.78;;;15.30;99.90;;;;;;4944444;29;20039;-76
2023/05/21 07:57:01;;;;;;;8.95;3.88;;;15.30;99.90;;;;;;4960990;28;20060;-75
2023/05/21 07:59:27;;;;;;;10.35;4.28;;;15.30;99.90;;;;;;4943166;28;20054;-76
2023/05/21 08:01:53;;;;;;;9.02;3.83;;;15.30;99.90;;;;;;4933031;28;20054;-76
2023/05/21 08:04:19;;;;;;;12.98;4.00;;;15.40;99.90;;;;;;4943792;28;20854;-76
2023/05/21 08:06:45;;;;;;;9.85;4.03;;;15.40;99.90;;;;;;4927946;29;20126;-75
2023/05/21 08:09:11;;;;;;;10.77;3.78;;;15.50;99.90;;;;;;4944789;28;20488;-75
2023/05/21 08:11:37;;;;;;;10.98;4.10;;;15.60;99.90;;;;;;4943525;28;20051;-75
2023/05/21 08:14:03;;;;;;;11.02;3.63;;;15.60;99.90;;;;;;4938132;28;20114;-76
2023/05/21 08:16:29;;;;;;;11.40;4.10;;;15.70;99.90;;;;;;4939975;29;20047;-76
2023/05/21 08:18:54;;;;;;;10.02;3.88;;;15.80;99.90;;;;;;4946150;29;20522;-76
2023/05/21 08:21:22;;;;;;;10.05;4.05;;;15.80;99.90;;;;;;4942109;28;20051;-76
2023/05/21 08:23:47;;;;;;;10.65;3.90;;;15.80;99.90;;;;;;4924847;29;20340;-76
2023/05/21 08:26:16;;;;;;;7.93;3.60;;;15.90;99.90;;;;;;4930360;28;20047;-77
2023/05/21 08:28:42;;;;;;;9.57;3.58;;;15.90;99.90;;;;;;4936054;28;20135;-76
2023/05/21 08:31:07;;;;;;;7.75;3.97;;;15.90;99.90;;;;;;4936051;28;20054;-77
2023/05/21 08:33:37;;;;;;;10.40;3.60;;;15.90;99.90;;;;;;4940366;29;20051;-75
2023/05/21 08:36:06;;;;;;;8.30;3.88;;;16.00;99.90;;;;;;4937950;28;20039;-77
2023/05/21 08:38:33;;;;;;;12.38;4.20;;;16.00;99.90;;;;;;4933585;28;20043;-77
2023/05/21 08:40:59;;;;;;;10.35;3.55;;;16.10;99.90;;;;;;4938698;28;20106;-75
2023/05/21 08:43:30;;;;;;;10.48;3.40;;;16.10;99.90;;;;;;4931606;28;20059;-75
2023/05/21 08:46:02;;;;;;;9.45;4.07;;;16.20;99.90;;;;;;4933258;28;20928;-75
2023/05/21 08:48:30;;;;;;;10.95;3.90;;;16.30;99.90;;;;;;4939825;28;20039;-76
2023/05/21 08:50:57;;;;;;;12.27;4.03;;;16.40;99.90;;;;;;4917436;29;20475;-74
2023/05/21 08:53:23;;;;;;;9.50;3.92;;;16.40;99.90;;;;;;4937987;28;20055;-76
2023/05/21 08:55:54;;;;;;;9.27;4.28;;;16.50;99.90;;;;;;4936179;28;20469;-76
2023/05/21 08:58:24;;;;;;;10.18;3.40;;;16.50;99.90;;;;;;4934350;28;20054;-75
2023/05/21 09:00:50;;;;;;;8.63;3.50;;;16.50;99.90;;;;;;4915606;29;20142;-74
2023/05/21 09:03:15;;;;;;;8.10;3.40;;;16.50;99.90;;;;;;4946565;28;20806;-75
2023/05/21 09:05:42;;;;;;;11.10;3.80;;;16.60;99.90;;;;;;4946891;28;20082;-76
2023/05/21 09:08:28;;;;;;;11.63;4.40;;;16.60;99.90;;;;;;4939524;29;20117;-75
2023/05/21 09:10:54;;;;;;;9.40;3.67;;;16.70;99.90;;;;;;4945879;28;20707;-75
2023/05/21 09:13:20;;;;;;;8.30;3.90;;;16.60;99.90;;;;;;4934610;28;20122;-76
2023/05/21 09:15:46;;;;;;;12.32;4.13;;;16.60;99.90;;;;;;4938156;28;20047;-75
2023/05/21 09:18:13;;;;;;;8.75;3.42;;;16.60;99.90;;;;;;4938998;28;20043;-77
2023/05/21 09:20:39;;;;;;;11.95;3.97;;;16.70;99.90;;;;;;4920691;29;20114;-75
2023/05/21 09:23:11;;;;;;;10.52;3.50;;;16.70;99.90;;;;;;4939701;28;20062;-76
2023/05/21 09:25:37;;;;;;;12.10;4.18;;;16.70;99.90;;;;;;4933697;28;20082;-76
2023/05/21 09:28:10;;;;;;;8.98;3.70;;;16.80;99.90;;;;;;4949007;28;20507;-78
2023/05/21 09:30:36;;;;;;;10.98;4.10;;;16.80;99.90;;;;;;4934798;28;20062;-76
2023/05/21 09:33:02;;;;;;;9.75;3.80;;;16.80;99.90;;;;;;4949947;28;20044;-76
2023/05/21 09:35:28;;;;;;;7.28;3.38;;;16.80;99.90;;;;;;4936144;29;20035;-75
2023/05/21 09:37:56;;;;;;;9.68;4.05;;;16.90;99.90;;;;;;4940549;28;20074;-77
2023/05/21 09:40:22;;;;;;;11.02;3.85;;;16.90;99.90;;;;;;4923132;29;20113;-76
2023/05/21 09:42:53;;;;;;;14.07;4.28;;;17.00;99.90;;;;;;4945946;28;20051;-78
2023/05/21 09:45:22;;;;;;;8.93;3.95;;;17.00;99.90;;;;;;4945681;29;20469;-77
2023/05/21 09:47:49;;;;;;;12.18;3.80;;;17.10;99.90;;;;;;4948864;28;20066;-78
2023/05/21 09:50:20;;;;;;;10.60;4.15;;;17.10;99.90;;;;;;4950203;28;20047;-77
2023/05/21 09:52:46;;;;;;;9.37;4.00;;;17.10;99.90;;;;;;4941348;28;20078;-77
2023/05/21 09:55:13;;;;;;;11.60;4.05;;;17.10;99.90;;;;;;4933762;28;20115;-77
2023/05/21 09:57:43;;;;;;;10.18;3.88;;;17.10;99.90;;;;;;4933741;28;20043;-77
2023/05/21 10:00:20;;;;;;;9.63;3.78;;;17.20;99.90;;;;;;4939014;28;20079;-76
2023/05/21 10:02:47;;;;;;;7.10;3.80;;;17.20;99.90;;;;;;4934373;28;20062;-79
2023/05/21 10:05:15;;;;;;;7.82;3.78;;;17.30;99.90;;;;;;4936836;28;20523;-79
2023/05/21 10:07:43;;;;;;;10.30;3.80;;;17.30;99.90;;;;;;4935465;28;20408;-77
2023/05/21 10:10:13;;;;;;;12.02;3.90;;;17.40;99.90;;;;;;4936943;28;20185;-74
2023/05/21 10:12:42;;;;;;;10.48;4.30;;;17.40;99.90;;;;;;4935916;28;20179;-76
2023/05/21 10:15:11;;;;;;;9.65;3.97;;;17.40;99.90;;;;;;4951925;28;20125;-76
2023/05/21 10:17:38;;;;;;;11.23;3.60;;;17.40;99.90;;;;;;4951724;28;20592;-74
2023/05/21 10:20:06;;;;;;;11.60;3.90;;;17.40;99.90;;;;;;4942872;28;20134;-74
2023/05/21 10:22:33;;;;;;;12.00;3.53;;;17.40;99.90;;;;;;4939590;28;20058;-74
2023/05/21 10:25:02;;;;;;;9.63;4.20;;;17.40;99.90;;;;;;4926168;29;20051;-74
2023/05/21 10:27:29;;;;;;;9.82;4.07;;;17.40;99.90;;;;;;4935646;28;20139;-74
2023/05/21 10:29:58;;;;;;;10.20;4.03;;;17.40;99.90;;;;;;4938478;28;20529;-74
2023/05/21 10:32:26;;;;;;;12.23;4.15;;;17.50;99.90;;;;;;4941244;28;20043;-75
2023/05/21 10:34:53;;;;;;;9.13;4.03;;;17.50;99.90;;;;;;4944734;28;20082;-75
2023/05/21 10:37:26;;;;;;;13.68;4.18;;;17.60;99.90;;;;;;4938977;28;20031;-77
2023/05/21 10:39:53;;;;;;;10.75;4.38;;;17.60;99.90;;;;;;4943719;28;20043;-76
2023/05/21 10:42:31;;;;;;;7.97;3.95;;;17.60;99.90;;;;;;4946177;28;20047;-75
2023/05/21 10:45:03;;;;;;;9.25;3.55;;;17.60;99.90;;;;;;4946522;28;20050;-75
2023/05/21 10:47:50;;;;;;;8.63;3.72;;;17.70;99.90;;;;;;4928408;29;20067;-76
2023/05/21 10:50:35;;;;;;;9.25;4.10;;;17.80;99.90;;;;;;4929021;28;20050;-77
2023/05/21 10:53:16;;;;;;;10.82;3.78;;;17.80;99.90;;;;;;4923142;28;20079;-77
2023/05/21 10:56:20;;;;;;;10.70;3.90;;;17.80;99.90;;;;;;4947788;28;20077;-78
2023/05/21 10:59:11;;;;;;;11.48;3.83;;;17.80;99.90;;;;;;4945442;28;20133;-77
2023/05/21 11:01:39;;;;;;;11.48;3.70;;;17.90;99.90;;;;;;4944490;28;20508;-78
2023/05/21 11:04:05;;;;;;;12.38;4.45;;;17.90;99.90;;;;;;4948459;28;20527;-77
2023/05/21 11:06:31;;;;;;;10.05;3.90;;;17.90;99.90;;;;;;4947129;28;20046;-76
2023/05/21 11:09:20;;;;;;;8.60;3.83;;;18.00;99.90;;;;;;4926347;29;20214;-76
2023/05/21 11:12:12;;;;;;;10.30;3.63;;;18.00;99.90;;;;;;4940406;28;20051;-76
2023/05/21 11:14:41;;;;;;;8.90;3.83;;;18.10;99.90;;;;;;4954088;28;20726;-76
2023/05/21 11:17:36;;;;;;;10.45;3.65;;;18.10;99.90;;;;;;4939447;28;20118;-77
2023/05/21 11:20:15;;;;;;;9.43;3.80;;;18.10;99.90;;;;;;4918582;29;20118;-75
2023/05/21 11:22:41;;;;;;;9.90;3.95;;;18.10;99.90;;;;;;4934162;28;20656;-75
2023/05/21 11:25:07;;;;;;;8.23;3.83;;;18.10;99.90;;;;;;4937670;28;20118;-74
2023/05/21 11:27:40;;;;;;;10.52;4.03;;;18.20;99.90;;;;;;4936860;28;20040;-76
2023/05/21 11:30:17;;;;;;;8.45;3.63;;;18.20;99.90;;;;;;4935770;28;20043;-76
2023/05/21 11:33:15;;;;;;;10.30;4.10;;;18.20;99.90;;;;;;4934976;28;20043;-76
2023/05/21 11:35:43;;;;;;;8.88;3.40;;;18.20;99.90;;;;;;4932731;28;20047;-77
2023/05/21 11:38:09;;;;;;;11.10;4.35;;;18.30;99.90;;;;;;4933454;28;20055;-77
2023/05/21 11:40:35;;;;;;;9.52;4.18;;;18.30;99.90;;;;;;4938357;28;20073;-77
2023/05/21 11:43:01;;;;;;;11.15;4.35;;;18.40;99.90;;;;;;4922196;28;20512;-77
2023/05/21 11:45:32;;;;;;;10.70;4.45;;;18.50;99.90;;;;;;4933064;28;20043;-76
2023/05/21 11:48:02;;;;;;;13.80;5.00;;;18.60;99.90;;;;;;4949650;28;20441;-76
2023/05/21 11:50:29;;;;;;;8.73;3.88;;;18.50;99.90;;;;;;4933868;28;20496;-75
2023/05/21 11:52:55;;;;;;;11.30;4.60;;;18.50;99.90;;;;;;4952718;28;20897;-75
2023/05/21 11:55:23;;;;;;;13.50;4.93;;;18.50;99.90;;;;;;4937465;28;20039;-74
2023/05/21 11:57:51;;;;;;;14.40;5.03;;;18.50;99.90;;;;;;4938086;28;20067;-75
2023/05/21 12:00:17;;;;;;;14.05;4.85;;;18.50;99.90;;;;;;4935436;28;20043;-73
2023/05/21 12:02:54;;;;;;;10.60;4.88;;;18.50;99.90;;;;;;4949056;28;20047;-74
2023/05/21 12:05:20;;;;;;;10.55;5.65;;;18.50;99.90;;;;;;4923141;29;20065;-76
2023/05/21 12:07:49;;;;;;;13.75;5.22;;;18.50;99.90;;;;;;4953302;28;20051;-76
2023/05/21 12:10:15;;;;;;;10.00;4.80;;;18.50;99.90;;;;;;4937515;28;20717;-74
2023/05/21 12:12:41;;;;;;;11.68;4.93;;;18.60;99.90;;;;;;4933599;28;21041;-77
2023/05/21 12:15:09;;;;;;;13.27;4.90;;;18.60;99.90;;;;;;4947428;28;20090;-74
2023/05/21 12:17:35;;;;;;;10.95;5.10;;;18.70;99.90;;;;;;4934797;28;20106;-74
2023/05/21 12:20:01;;;;;;;13.68;5.45;;;18.70;99.90;;;;;;4935695;28;20035;-76
2023/05/21 12:22:28;;;;;;;12.20;5.78;;;18.70;99.90;;;;;;4936544;28;20051;-74
2023/05/21 12:24:56;;;;;;;10.55;5.32;;;18.80;99.90;;;;;;4936663;28;20040;-75
2023/05/21 12:27:27;;;;;;;12.25;6.35;;;18.80;99.90;;;;;;4936782;28;20043;-75
2023/05/21 12:29:53;;;;;;;14.18;6.88;;;18.80;99.90;;;;;;4936691;28;20051;-75
2023/05/21 12:32:20;;;;;;;15.98;7.20;;;18.90;99.90;;;;;;4922230;28;20057;-71
2023/05/21 12:34:47;;;;;;;14.05;7.20;;;18.90;99.90;;;;;;4939818;28;20062;-72
2023/05/21 12:37:21;;;;;;;12.98;7.40;;;18.80;99.90;;;;;;4938026;28;20086;-73
2023/05/21 12:39:50;;;;;;;13.02;6.88;;;18.80;99.90;;;;;;4941865;28;20139;-74
2023/05/21 12:42:23;;;;;;;12.90;6.82;;;18.80;99.90;;;;;;4918880;28;20047;-73
2023/05/21 12:44:51;;;;;;;14.10;7.10;;;18.80;99.90;;;;;;4939233;28;20051;-73